Impacts TAF Board
For situational awareness. Not to be used for flight planning purposes.
IDs:

KCSG - Columbus Arpt, GA, US

Issued at 1138 UTC 07 Dec 2021
Updated at 1739 UTC 07 Dec 2021
Potential Impact None Slight Moderate High
Time1651Z 07/18Z 07/19Z 07/20Z 07/21Z 07/22Z 07/23Z 08/00Z 08/01Z 08/02Z 08/03Z 08/04Z 08/05Z 08/06Z>>
Type OBS PRVL PRVL
  [TEMP]  
PRVL
  [TEMP]  
PRVL
  [TEMP]  
PRVL
  [TEMP]  
PRVL PRVL PRVL PRVL PRVL PRVL PRVL PRVL
VIS 10 >6 >6
  [5]  
>6
  [5]  
>6
  [5]  
>6
  [5]  
6 6 6 6 5 5 5 5
CIG 18 20 20
  [35]  
20
  [35]  
20
  [35]  
20
  [35]  
9 9 9 9 7 7 7 7
Cover OVC OVC OVC
  [OVC]  
OVC
  [OVC]  
OVC
  [OVC]  
OVC
  [OVC]  
OVC OVC OVC OVC OVC OVC OVC OVC
FltCat MVFR MVFR MVFR
  [MVFR]  
MVFR
  [MVFR]  
MVFR
  [MVFR]  
MVFR
  [MVFR]  
IFR IFR IFR IFR IFR IFR IFR IFR
WX -- -- --
  [-SHRA BR]  
--
  [-SHRA BR]  
--
  [-SHRA BR]  
--
  [-SHRA BR]  
-SHRA BR -SHRA BR -SHRA BR -SHRA BR -SHRA BR -SHRA BR -SHRA BR -SHRA BR
WDir VRB 30 30
[30]
30
[30]
30
[30]
30
[30]
70 70 70 70 VRB VRB VRB VRB
WSpd 0 4 4
  [4]  
4
  [4]  
4
  [4]  
4
  [4]  
3 3 3 3 3 3 3 3
WGst -- -- --
  [--]  
--
  [--]  
--
  [--]  
--
  [--]  
-- -- -- -- -- -- -- --
WSHgt -- -- --
[--]
--
[--]
--
[--]
--
[--]
-- -- -- -- -- -- -- --
WSDir -- -- --
[--]
--
[--]
--
[--]
--
[--]
-- -- -- -- -- -- -- --
WSSpd -- -- --
[--]
--
[--]
--
[--]
--
[--]
-- -- -- -- -- -- -- --
Raw TAF
KCSG 071138Z 0712/0812 35005KT P6SM OVC020
  FM071400 03004KT P6SM OVC020
  TEMPO 0719/0723 5SM -SHRA BR SCT020 OVC035
  FM072300 07003KT 6SM -SHRA BR OVC009
  FM080300 VRB03KT 5SM -SHRA BR OVC007


Raw METAR
KCSG 071651Z 00000KT 10SM OVC018 11/03 A3015 RMK AO2 SLP209 T01110033
KCSG 071551Z 00000KT 10SM OVC017 10/02 A3018 RMK AO2 SLP218 T01000022
KCSG 071451Z 00000KT 10SM OVC017 08/02 A3018 RMK AO2 SLP217 T00830017 53017

METAR Board
Radar Display
Forecast Discussion
For situational awareness. Not to be used for flight planning purposes.